Time,TemperatureF,DewpointF,PressureIn,WindDirection,WindDirectionDegrees,WindSpeedMPH,WindSpeedGustMPH,Humidity,HourlyPrecipIn,Conditions,Clouds,dailyrainin,SoftwareType,DateUTC
2013-03-24 00:00:00,35.8,24.0,29.87,North,356,0.0,0.0,62,0.00,,,0.00,Wunderground v.1.15,2013-03-24 04:00:00,
2013-03-24 00:05:00,35.5,24.1,29.86,North,356,0.0,0.0,63,0.00,,,0.00,Wunderground v.1.15,2013-03-24 04:05:00,
2013-03-24 00:15:00,34.7,23.4,29.86,North,356,0.0,0.0,63,0.00,,,0.00,Wunderground v.1.15,2013-03-24 04:15:00,
2013-03-24 00:20:00,34.7,23.4,29.87,North,356,0.0,0.0,63,0.00,,,0.00,Wunderground v.1.15,2013-03-24 04:20:00,
2013-03-24 00:30:00,35.0,22.5,29.87,North,356,0.0,0.0,60,0.00,,,0.00,Wunderground v.1.15,2013-03-24 04:30:00,
2013-03-24 00:35:00,35.9,21.7,29.86,North,356,0.0,0.0,56,0.00,,,0.00,Wunderground v.1.15,2013-03-24 04:35:00,
2013-03-24 00:45:00,37.2,22.1,29.86,North,356,0.0,0.0,54,0.00,,,0.00,Wunderground v.1.15,2013-03-24 04:45:00,
2013-03-24 00:55:00,38.6,21.1,29.86,North,356,0.0,0.0,49,0.00,,,0.00,Wunderground v.1.15,2013-03-24 04:55:00,
2013-03-24 01:00:00,38.8,22.2,29.86,North,356,0.0,0.0,51,0.00,,,0.00,Wunderground v.1.15,2013-03-24 05:00:00,
2013-03-24 01:10:00,39.3,20.7,29.86,North,356,0.0,0.0,47,0.00,,,0.00,Wunderground v.1.15,2013-03-24 05:10:00,
2013-03-24 01:20:00,40.3,20.6,29.84,ENE,59,0.0,0.0,45,0.00,,,0.00,Wunderground v.1.15,2013-03-24 05:20:00,
2013-03-24 01:25:00,40.5,21.3,29.84,ENE,59,0.0,0.0,46,0.00,,,0.00,Wunderground v.1.15,2013-03-24 05:25:00,
2013-03-24 01:35:00,39.3,24.9,29.85,ENE,59,0.0,0.0,56,0.00,,,0.00,Wunderground v.1.15,2013-03-24 05:35:00,
2013-03-24 01:40:00,38.8,24.4,29.85,ENE,59,0.0,0.0,56,0.00,,,0.00,Wunderground v.1.15,2013-03-24 05:40:00,
2013-03-24 01:50:00,38.3,23.1,29.84,ENE,59,0.0,1.0,54,0.00,,,0.00,Wunderground v.1.15,2013-03-24 05:50:00,
2013-03-24 02:00:00,39.6,21.0,29.84,ENE,59,0.0,0.0,47,0.00,,,0.00,Wunderground v.1.15,2013-03-24 06:00:00,
2013-03-24 02:05:00,40.1,21.0,29.83,ENE,59,0.0,0.0,46,0.00,,,0.00,Wunderground v.1.15,2013-03-24 06:05:00,
2013-03-24 02:10:00,40.1,21.0,29.83,ENE,59,0.0,0.0,46,0.00,,,0.00,Wunderground v.1.15,2013-03-24 06:10:00,
2013-03-24 02:20:00,40.1,21.0,29.84,ENE,59,0.0,0.0,46,0.00,,,0.00,Wunderground v.1.15,2013-03-24 06:20:00,
2013-03-24 02:30:00,40.1,21.5,29.84,ENE,59,0.0,0.0,47,0.00,,,0.00,Wunderground v.1.15,2013-03-24 06:30:00,
2013-03-24 02:40:00,39.3,23.1,29.84,ENE,59,0.0,0.0,52,0.00,,,0.00,Wunderground v.1.15,2013-03-24 06:40:00,
2013-03-24 02:45:00,38.8,23.6,29.84,ENE,68,0.0,1.0,54,0.00,,,0.00,Wunderground v.1.15,2013-03-24 06:45:00,
2013-03-24 02:55:00,38.3,22.6,29.84,ENE,68,0.0,0.0,53,0.00,,,0.00,Wunderground v.1.15,2013-03-24 06:55:00,
2013-03-24 03:05:00,38.8,22.2,29.85,ENE,68,0.0,0.0,51,0.00,,,0.00,Wunderground v.1.15,2013-03-24 07:05:00,
2013-03-24 03:10:00,38.9,21.8,29.85,ENE,68,0.0,0.0,50,0.00,,,0.00,Wunderground v.1.15,2013-03-24 07:10:00,
2013-03-24 03:20:00,39.6,20.5,29.85,ENE,68,0.0,0.0,46,0.00,,,0.00,Wunderground v.1.15,2013-03-24 07:20:00,
2013-03-24 03:30:00,40.2,19.5,29.85,ENE,68,1.0,1.0,43,0.00,,,0.00,Wunderground v.1.15,2013-03-24 07:30:00,
2013-03-24 03:40:00,39.5,21.9,29.84,ENE,68,0.0,0.0,49,0.00,,,0.00,Wunderground v.1.15,2013-03-24 07:40:00,
2013-03-24 03:50:00,39.8,20.2,29.83,ENE,68,1.0,2.0,45,0.00,,,0.00,Wunderground v.1.15,2013-03-24 07:50:00,
2013-03-24 04:00:00,40.2,19.5,29.83,ENE,68,1.0,1.0,43,0.00,,,0.00,Wunderground v.1.15,2013-03-24 08:00:00,
2013-03-24 04:05:00,40.3,19.5,29.82,ENE,65,1.0,3.0,43,0.00,,,0.00,Wunderground v.1.15,2013-03-24 08:05:00,
2013-03-24 04:10:00,40.3,19.5,29.82,ENE,64,1.0,3.0,43,0.00,,,0.00,Wunderground v.1.15,2013-03-24 08:10:00,
2013-03-24 04:20:00,40.5,19.2,29.80,NE,38,3.0,3.0,42,0.00,,,0.00,Wunderground v.1.15,2013-03-24 08:20:00,
2013-03-24 04:30:00,40.3,19.5,29.80,NNE,25,2.0,7.0,43,0.00,,,0.00,Wunderground v.1.15,2013-03-24 08:30:00,
2013-03-24 04:35:00,40.3,19.5,29.79,NNE,27,3.0,7.0,43,0.00,,,0.00,Wunderground v.1.15,2013-03-24 08:35:00,
2013-03-24 04:45:00,40.3,19.5,29.79,NNE,24,2.0,2.0,43,0.00,,,0.00,Wunderground v.1.15,2013-03-24 08:45:00,
2013-03-24 04:50:00,40.1,19.4,29.77,NNE,24,2.0,3.0,43,0.00,,,0.00,Wunderground v.1.15,2013-03-24 08:50:00,
2013-03-24 05:00:00,39.9,19.2,29.77,NNE,28,2.0,3.0,43,0.00,,,0.00,Wunderground v.1.15,2013-03-24 09:00:00,
2013-03-24 05:10:00,39.8,20.2,29.77,NNE,27,1.0,2.0,45,0.00,,,0.00,Wunderground v.1.15,2013-03-24 09:10:00,
2013-03-24 05:20:00,39.6,19.5,29.77,NE,45,2.0,2.0,44,0.00,,,0.00,Wunderground v.1.15,2013-03-24 09:20:00,
2013-03-24 05:25:00,39.5,19.9,29.77,NE,49,2.0,2.0,45,0.00,,,0.00,Wunderground v.1.15,2013-03-24 09:25:00,
2013-03-24 05:35:00,39.5,19.9,29.77,NNE,25,1.0,2.0,45,0.00,,,0.00,Wunderground v.1.15,2013-03-24 09:35:00,
2013-03-24 05:40:00,39.5,19.9,29.77,NNE,27,2.0,2.0,45,0.00,,,0.00,Wunderground v.1.15,2013-03-24 09:40:00,
2013-03-24 05:50:00,39.5,19.9,29.77,NE,40,2.0,2.0,45,0.00,,,0.00,Wunderground v.1.15,2013-03-24 09:50:00,
2013-03-24 06:00:00,39.5,19.9,29.77,NE,40,2.0,2.0,45,0.00,,,0.00,Wunderground v.1.15,2013-03-24 10:00:00,
2013-03-24 06:09:00,39.5,19.9,29.76,NE,38,3.0,3.0,45,0.00,,,0.00,Wunderground v.1.15,2013-03-24 10:09:00,
2013-03-24 06:15:00,39.5,19.9,29.76,NE,42,4.0,4.0,45,0.00,,,0.00,Wunderground v.1.15,2013-03-24 10:15:00,
2013-03-24 06:20:00,39.5,19.9,29.76,North,8,3.0,3.0,45,0.00,,,0.00,Wunderground v.1.15,2013-03-24 10:20:00,
2013-03-24 06:30:00,39.3,20.2,29.76,NE,45,4.0,4.0,46,0.00,,,0.00,Wunderground v.1.15,2013-03-24 10:30:00,
2013-03-24 06:40:00,39.2,20.1,29.75,NE,40,4.0,6.0,46,0.00,,,0.00,Wunderground v.1.15,2013-03-24 10:40:00,
2013-03-24 06:50:00,39.1,20.0,29.74,ENE,61,3.0,3.0,46,0.00,,,0.00,Wunderground v.1.15,2013-03-24 10:50:00,
2013-03-24 07:00:00,39.1,20.5,29.74,NE,55,2.0,2.0,47,0.00,,,0.00,Wunderground v.1.15,2013-03-24 11:00:00,
2013-03-24 07:05:00,38.9,20.9,29.73,NE,45,2.0,2.0,48,0.00,,,0.00,Wunderground v.1.15,2013-03-24 11:05:00,
2013-03-24 07:10:00,38.9,20.9,29.73,NNE,14,2.0,6.0,48,0.00,,,0.00,Wunderground v.1.15,2013-03-24 11:10:00,
2013-03-24 07:20:00,38.9,20.9,29.73,NE,54,3.0,3.0,48,0.00,,,0.00,Wunderground v.1.15,2013-03-24 11:20:00,
2013-03-24 07:30:00,38.8,20.8,29.73,NE,37,3.0,3.0,48,0.00,,,0.00,Wunderground v.1.15,2013-03-24 11:30:00,
2013-03-24 07:40:00,38.8,20.8,29.72,NNE,28,3.0,4.0,48,0.00,,,0.00,Wunderground v.1.15,2013-03-24 11:40:00,
2013-03-24 07:45:00,38.8,21.3,29.72,NE,52,3.0,10.0,49,0.00,,,0.00,Wunderground v.1.15,2013-03-24 11:45:00,
2013-03-24 07:55:00,38.8,21.3,29.71,NE,42,3.0,5.0,49,0.00,,,0.00,Wunderground v.1.15,2013-03-24 11:55:00,
2013-03-24 08:00:00,38.6,21.1,29.71,East,86,3.0,6.0,49,0.00,,,0.00,Wunderground v.1.15,2013-03-24 12:00:00,
2013-03-24 08:05:00,38.6,21.1,29.70,ENE,64,3.0,6.0,49,0.00,,,0.00,Wunderground v.1.15,2013-03-24 12:05:00,
2013-03-24 08:10:00,38.6,21.5,29.70,ENE,64,3.0,3.0,50,0.00,,,0.00,Wunderground v.1.15,2013-03-24 12:10:00,
2013-03-24 08:20:00,38.8,21.7,29.70,NE,47,3.0,3.0,50,0.00,,,0.00,Wunderground v.1.15,2013-03-24 12:20:00,
2013-03-24 08:30:00,38.8,21.3,29.70,NE,41,2.0,2.0,49,0.00,,,0.00,Wunderground v.1.15,2013-03-24 12:30:00,
2013-03-24 08:40:00,38.9,21.3,29.70,NE,55,3.0,3.0,49,0.00,,,0.00,Wunderground v.1.15,2013-03-24 12:40:00,
2013-03-24 08:50:00,39.1,21.5,29.70,ENE,61,2.0,2.0,49,0.00,,,0.00,Wunderground v.1.15,2013-03-24 12:50:00,
2013-03-24 08:55:00,39.1,22.0,29.70,NE,40,2.0,2.0,50,0.00,,,0.00,Wunderground v.1.15,2013-03-24 12:55:00,
2013-03-24 09:05:00,39.2,22.1,29.69,ESE,102,2.0,2.0,50,0.00,,,0.00,Wunderground v.1.15,2013-03-24 13:05:00,
2013-03-24 09:10:00,39.2,21.6,29.69,NE,54,2.0,2.0,49,0.00,,,0.00,Wunderground v.1.15,2013-03-24 13:10:00,
2013-03-24 09:20:00,39.3,21.7,29.69,ENE,76,2.0,2.0,49,0.00,,,0.00,Wunderground v.1.15,2013-03-24 13:20:00,
2013-03-24 09:30:00,39.5,21.9,29.69,NNE,25,2.0,2.0,49,0.00,,,0.00,Wunderground v.1.15,2013-03-24 13:30:00,
2013-03-24 09:35:00,39.6,22.5,29.68,NNE,30,2.0,2.0,50,0.00,,,0.00,Wunderground v.1.15,2013-03-24 13:35:00,
2013-03-24 09:45:00,39.8,22.2,29.68,ENE,65,2.0,2.0,49,0.00,,,0.00,Wunderground v.1.15,2013-03-24 13:45:00,
2013-03-24 09:55:00,39.9,22.7,29.67,East,93,3.0,6.0,50,0.00,,,0.00,Wunderground v.1.15,2013-03-24 13:55:00,
2013-03-24 10:00:00,39.8,23.6,29.67,NE,38,3.0,3.0,52,0.00,,,0.00,Wunderground v.1.15,2013-03-24 14:00:00,
2013-03-24 10:10:00,39.5,25.5,29.66,East,82,2.0,2.0,57,0.00,,,0.00,Wunderground v.1.15,2013-03-24 14:10:00,
2013-03-24 10:20:00,39.2,26.1,29.65,ENE,66,2.0,2.0,59,0.00,,,0.00,Wunderground v.1.15,2013-03-24 14:20:00,
2013-03-24 10:25:00,38.9,25.8,29.65,NE,55,3.0,6.0,59,0.00,,,0.00,Wunderground v.1.15,2013-03-24 14:25:00,
2013-03-24 10:35:00,38.6,26.3,29.62,NE,54,5.0,5.0,61,0.00,,,0.01,Wunderground v.1.15,2013-03-24 14:35:00,
2013-03-24 10:45:00,38.9,28.1,29.62,NE,47,2.0,4.0,65,0.00,,,0.01,Wunderground v.1.15,2013-03-24 14:45:00,
2013-03-24 10:50:00,38.9,26.6,29.63,East,82,3.0,5.0,61,0.00,,,0.01,Wunderground v.1.15,2013-03-24 14:50:00,
2013-03-24 11:00:00,38.9,27.4,29.63,NE,37,3.0,6.0,63,0.00,,,0.01,Wunderground v.1.15,2013-03-24 15:00:00,
2013-03-24 11:10:00,38.8,27.7,29.63,ENE,71,2.0,2.0,64,0.00,,,0.01,Wunderground v.1.15,2013-03-24 15:10:00,
2013-03-24 11:20:00,38.9,28.1,29.63,ENE,71,2.0,2.0,65,0.00,,,0.01,Wunderground v.1.15,2013-03-24 15:20:00,
2013-03-24 11:30:00,38.8,28.8,29.63,ENE,71,1.0,3.0,67,0.00,,,0.01,Wunderground v.1.15,2013-03-24 15:30:00,
2013-03-24 11:40:00,38.8,30.2,29.62,ENE,71,1.0,3.0,71,0.00,,,0.01,Wunderground v.1.15,2013-03-24 15:40:00,
2013-03-24 11:45:00,38.6,30.0,29.62,NE,48,2.0,3.0,71,0.00,,,0.01,Wunderground v.1.15,2013-03-24 15:45:00,
2013-03-24 11:50:00,38.5,30.3,29.61,NE,48,3.0,3.0,72,0.00,,,0.02,Wunderground v.1.15,2013-03-24 15:50:00,
2013-03-24 11:55:00,38.5,30.9,29.61,NE,48,2.0,3.0,74,0.00,,,0.02,Wunderground v.1.15,2013-03-24 15:55:00,
2013-03-24 12:05:00,38.3,31.4,29.61,NE,47,2.0,6.0,76,0.00,,,0.02,Wunderground v.1.15,2013-03-24 16:05:00,
2013-03-24 12:10:00,38.2,31.3,29.61,NE,44,2.0,2.0,76,0.00,,,0.02,Wunderground v.1.15,2013-03-24 16:10:00,
2013-03-24 12:15:00,38.3,31.7,29.61,NE,44,2.0,3.0,77,0.00,,,0.03,Wunderground v.1.15,2013-03-24 16:15:00,
2013-03-24 12:20:00,38.3,31.4,29.60,NE,42,2.0,3.0,76,0.00,,,0.03,Wunderground v.1.15,2013-03-24 16:20:00,
2013-03-24 12:25:00,38.3,31.7,29.60,NE,41,3.0,3.0,77,0.00,,,0.03,Wunderground v.1.15,2013-03-24 16:25:00,
2013-03-24 12:34:00,38.3,32.0,29.60,NNE,20,2.0,4.0,78,0.04,,,0.04,Wunderground v.1.15,2013-03-24 16:34:00,
2013-03-24 12:40:00,38.3,32.4,29.60,NE,44,3.0,3.0,79,0.04,,,0.04,Wunderground v.1.15,2013-03-24 16:40:00,
2013-03-24 12:45:00,38.5,32.9,29.60,NE,44,2.0,3.0,80,0.00,,,0.04,Wunderground v.1.15,2013-03-24 16:45:00,
2013-03-24 12:50:00,38.3,32.7,29.60,NE,44,1.0,1.0,80,0.00,,,0.05,Wunderground v.1.15,2013-03-24 16:50:00,
2013-03-24 12:55:00,38.5,33.2,29.60,NE,44,1.0,1.0,81,0.00,,,0.05,Wunderground v.1.15,2013-03-24 16:55:00,
2013-03-24 13:05:00,38.3,33.3,29.61,NE,35,1.0,1.0,82,0.13,,,0.07,Wunderground v.1.15,2013-03-24 17:05:00,
2013-03-24 13:10:00,38.2,33.5,29.61,NNE,31,1.0,2.0,83,0.12,,,0.08,Wunderground v.1.15,2013-03-24 17:10:00,
2013-03-24 13:15:00,37.9,33.2,29.61,NNE,31,1.0,2.0,83,0.11,,,0.08,Wunderground v.1.15,2013-03-24 17:15:00,
2013-03-24 13:20:00,37.8,33.7,29.60,NE,37,1.0,3.0,85,0.11,,,0.09,Wunderground v.1.15,2013-03-24 17:20:00,
2013-03-24 13:30:00,37.3,33.8,29.60,NE,35,2.0,2.0,87,0.08,,,0.10,Wunderground v.1.15,2013-03-24 17:30:00,
2013-03-24 13:40:00,36.9,33.7,29.59,NNE,17,2.0,3.0,88,0.16,,,0.13,Wunderground v.1.15,2013-03-24 17:40:00,
2013-03-24 13:50:00,36.9,34.0,29.58,NNE,16,1.0,1.0,89,0.14,,,0.15,Wunderground v.1.15,2013-03-24 17:50:00,
2013-03-24 14:00:00,36.8,34.1,29.58,NNE,16,1.0,3.0,90,0.09,,,0.16,Wunderground v.1.15,2013-03-24 18:00:00,
2013-03-24 14:05:00,36.6,33.9,29.58,NE,35,2.0,3.0,90,0.07,,,0.16,Wunderground v.1.15,2013-03-24 18:05:00,
2013-03-24 14:15:00,36.8,34.4,29.58,NNE,21,2.0,3.0,91,0.07,,,0.18,Wunderground v.1.15,2013-03-24 18:15:00,
2013-03-24 14:20:00,36.8,34.4,29.57,NNE,23,3.0,3.0,91,0.07,,,0.18,Wunderground v.1.15,2013-03-24 18:20:00,
2013-03-24 14:30:00,36.6,33.9,29.57,NNE,20,4.0,4.0,90,0.04,,,0.19,Wunderground v.1.15,2013-03-24 18:30:00,
2013-03-24 14:40:00,36.8,34.4,29.56,NE,38,3.0,3.0,91,0.04,,,0.19,Wunderground v.1.15,2013-03-24 18:40:00,
2013-03-24 14:50:00,36.6,34.2,29.55,NE,34,4.0,4.0,91,0.00,,,0.19,Wunderground v.1.15,2013-03-24 18:50:00,
2013-03-24 14:55:00,36.5,34.1,29.55,NNE,28,4.0,6.0,91,0.00,,,0.20,Wunderground v.1.15,2013-03-24 18:55:00,
2013-03-24 15:05:00,36.6,34.2,29.54,NNE,25,5.0,5.0,91,0.00,,,0.20,Wunderground v.1.15,2013-03-24 19:05:00,
2013-03-24 15:10:00,36.6,34.2,29.54,NNE,17,4.0,8.0,91,0.00,,,0.20,Wunderground v.1.15,2013-03-24 19:10:00,
2013-03-24 15:20:00,36.6,34.2,29.53,NNE,31,4.0,4.0,91,0.00,,,0.20,Wunderground v.1.15,2013-03-24 19:20:00,
2013-03-24 15:30:00,36.6,34.2,29.53,NE,49,4.0,4.0,91,0.00,,,0.20,Wunderground v.1.15,2013-03-24 19:30:00,
2013-03-24 15:35:00,36.9,34.5,29.52,NNE,31,3.0,4.0,91,0.00,,,0.20,Wunderground v.1.15,2013-03-24 19:35:00,
2013-03-24 15:45:00,36.9,34.8,29.52,ENE,68,2.0,2.0,92,0.00,,,0.20,Wunderground v.1.15,2013-03-24 19:45:00,
2013-03-24 15:50:00,36.9,34.8,29.51,NE,49,3.0,3.0,92,0.00,,,0.20,Wunderground v.1.15,2013-03-24 19:50:00,
2013-03-24 16:00:00,36.8,35.0,29.51,NNE,28,4.0,4.0,93,0.00,,,0.20,Wunderground v.1.15,2013-03-24 20:00:00,
2013-03-24 16:10:00,36.6,35.0,29.50,ENE,76,5.0,5.0,94,0.00,,,0.20,Wunderground v.1.15,2013-03-24 20:10:00,
2013-03-24 16:15:00,36.6,35.0,29.50,NNE,30,5.0,5.0,94,0.00,,,0.20,Wunderground v.1.15,2013-03-24 20:15:00,
2013-03-24 16:25:00,36.6,35.0,29.48,ENE,73,4.0,4.0,94,0.00,,,0.20,Wunderground v.1.15,2013-03-24 20:25:00,
2013-03-24 16:35:00,36.6,35.3,29.47,ENE,66,4.0,8.0,95,0.00,,,0.20,Wunderground v.1.15,2013-03-24 20:35:00,
2013-03-24 16:40:00,36.9,35.6,29.47,NNE,27,3.0,3.0,95,0.00,,,0.20,Wunderground v.1.15,2013-03-24 20:40:00,
2013-03-24 16:50:00,37.0,35.7,29.46,East,82,2.0,2.0,95,0.00,,,0.20,Wunderground v.1.15,2013-03-24 20:50:00,
2013-03-24 17:00:00,37.2,35.9,29.46,NNE,32,2.0,5.0,95,0.00,,,0.20,Wunderground v.1.15,2013-03-24 21:00:00,
2013-03-24 17:05:00,37.2,35.9,29.46,NE,35,2.0,5.0,95,0.00,,,0.20,Wunderground v.1.15,2013-03-24 21:05:00,
2013-03-24 17:15:00,37.2,35.9,29.46,ENE,76,3.0,3.0,95,0.00,,,0.20,Wunderground v.1.15,2013-03-24 21:15:00,
2013-03-24 17:25:00,37.5,36.2,29.45,East,79,2.0,2.0,95,0.00,,,0.20,Wunderground v.1.15,2013-03-24 21:25:00,
2013-03-24 17:30:00,37.5,36.2,29.45,NE,56,1.0,1.0,95,0.00,,,0.20,Wunderground v.1.15,2013-03-24 21:30:00,
2013-03-24 17:40:00,37.6,36.3,29.44,NE,55,2.0,2.0,95,0.00,,,0.20,Wunderground v.1.15,2013-03-24 21:40:00,
2013-03-24 17:50:00,37.6,36.3,29.43,NE,34,3.0,3.0,95,0.00,,,0.20,Wunderground v.1.15,2013-03-24 21:50:00,
2013-03-24 18:00:00,37.8,36.5,29.43,NNE,32,2.0,2.0,95,0.00,,,0.20,Wunderground v.1.15,2013-03-24 22:00:00,
2013-03-24 18:05:00,37.8,36.8,29.44,NNE,28,2.0,2.0,96,0.00,,,0.20,Wunderground v.1.15,2013-03-24 22:05:00,
2013-03-24 18:15:00,37.8,36.8,29.44,NNE,25,2.0,2.0,96,0.00,,,0.20,Wunderground v.1.15,2013-03-24 22:15:00,
2013-03-24 18:25:00,37.8,36.8,29.42,NE,37,3.0,3.0,96,0.00,,,0.21,Wunderground v.1.15,2013-03-24 22:25:00,
2013-03-24 18:30:00,37.8,36.8,29.42,NE,37,2.0,2.0,96,0.00,,,0.21,Wunderground v.1.15,2013-03-24 22:30:00,
2013-03-24 18:40:00,37.9,36.9,29.42,NE,37,2.0,2.0,96,0.00,,,0.21,Wunderground v.1.15,2013-03-24 22:40:00,
2013-03-24 18:50:00,38.0,37.2,29.41,NE,35,2.0,2.0,97,0.00,,,0.21,Wunderground v.1.15,2013-03-24 22:50:00,
2013-03-24 19:00:00,38.2,37.4,29.41,NE,35,1.0,2.0,97,0.00,,,0.21,Wunderground v.1.15,2013-03-24 23:00:00,
2013-03-24 19:05:00,38.2,37.4,29.41,NE,34,2.0,2.0,97,0.00,,,0.21,Wunderground v.1.15,2013-03-24 23:05:00,
2013-03-24 19:15:00,38.3,37.5,29.41,NNE,28,2.0,2.0,97,0.00,,,0.21,Wunderground v.1.15,2013-03-24 23:15:00,
2013-03-24 19:20:00,38.3,37.5,29.41,NNE,28,2.0,2.0,97,0.00,,,0.21,Wunderground v.1.15,2013-03-24 23:20:00,
2013-03-24 19:30:00,38.5,37.7,29.41,NE,47,2.0,4.0,97,0.00,,,0.21,Wunderground v.1.15,2013-03-24 23:30:00,
2013-03-24 19:40:00,38.6,37.8,29.39,ENE,66,1.0,1.0,97,0.00,,,0.22,Wunderground v.1.15,2013-03-24 23:40:00,
2013-03-24 19:49:00,38.8,38.0,29.41,ENE,73,1.0,3.0,97,0.62,,,0.27,Wunderground v.1.15,2013-03-24 23:49:00,
2013-03-24 19:55:00,38.9,38.1,29.41,ENE,61,1.0,3.0,97,0.18,,,0.28,Wunderground v.1.15,2013-03-24 23:55:00,
2013-03-24 20:00:00,38.9,38.1,29.41,NE,45,1.0,2.0,97,0.14,,,0.30,Wunderground v.1.15,2013-03-25 00:00:00,
2013-03-24 20:10:00,38.9,38.1,29.40,ENE,59,1.0,1.0,97,0.33,,,0.34,Wunderground v.1.15,2013-03-25 00:10:00,
2013-03-24 20:20:00,39.1,38.6,29.42,ENE,59,0.0,0.0,98,0.27,,,0.39,Wunderground v.1.15,2013-03-25 00:20:00,
2013-03-24 20:30:00,38.9,38.4,29.42,ENE,65,2.0,2.0,98,0.21,,,0.43,Wunderground v.1.15,2013-03-25 00:30:00,
2013-03-24 20:40:00,38.8,38.3,29.39,ENE,69,1.0,2.0,98,0.11,,,0.45,Wunderground v.1.15,2013-03-25 00:40:00,
2013-03-24 20:45:00,38.8,38.3,29.39,NE,52,1.0,2.0,98,0.09,,,0.46,Wunderground v.1.15,2013-03-25 00:45:00,
2013-03-24 20:50:00,38.8,38.3,29.39,NE,52,1.0,1.0,98,0.08,,,0.46,Wunderground v.1.15,2013-03-25 00:50:00,
2013-03-24 21:00:00,38.8,38.3,29.39,East,92,1.0,1.0,98,0.05,,,0.47,Wunderground v.1.15,2013-03-25 01:00:00,
2013-03-24 21:10:00,38.8,38.3,29.39,East,92,1.0,2.0,98,0.06,,,0.48,Wunderground v.1.15,2013-03-25 01:10:00,
2013-03-24 21:20:00,38.6,38.1,29.39,East,99,1.0,1.0,98,0.14,,,0.50,Wunderground v.1.15,2013-03-25 01:20:00,
2013-03-24 21:30:00,38.6,38.1,29.39,NE,54,1.0,1.0,98,0.08,,,0.51,Wunderground v.1.15,2013-03-25 01:30:00,
2013-03-24 21:35:00,38.6,38.1,29.39,NE,54,1.0,3.0,98,0.12,,,0.52,Wunderground v.1.15,2013-03-25 01:35:00,
2013-03-24 21:45:00,38.6,38.1,29.39,NE,54,0.0,1.0,98,0.17,,,0.55,Wunderground v.1.15,2013-03-25 01:45:00,
2013-03-24 21:50:00,38.6,38.1,29.40,NE,54,0.0,0.0,98,0.17,,,0.56,Wunderground v.1.15,2013-03-25 01:50:00,
2013-03-24 22:00:00,38.8,38.3,29.40,NE,54,0.0,0.0,98,0.31,,,0.60,Wunderground v.1.15,2013-03-25 02:00:00,
2013-03-24 22:10:00,38.8,38.3,29.41,NE,54,0.0,0.0,98,0.11,,,0.61,Wunderground v.1.15,2013-03-25 02:10:00,
2013-03-24 22:15:00,38.8,38.3,29.41,NE,54,0.0,0.0,98,0.06,,,0.61,Wunderground v.1.15,2013-03-25 02:15:00,
2013-03-24 22:25:00,38.8,38.3,29.41,NE,54,0.0,0.0,98,0.04,,,0.62,Wunderground v.1.15,2013-03-25 02:25:00,
2013-03-24 22:30:00,38.8,38.3,29.41,NE,54,0.0,0.0,98,0.04,,,0.62,Wunderground v.1.15,2013-03-25 02:30:00,
2013-03-24 22:35:00,38.8,38.3,29.40,NE,54,0.0,0.0,98,0.04,,,0.62,Wunderground v.1.15,2013-03-25 02:35:00,
2013-03-24 22:44:00,38.8,38.3,29.40,NE,54,0.0,0.0,98,0.00,,,0.62,Wunderground v.1.15,2013-03-25 02:44:00,
2013-03-24 22:49:00,38.8,38.3,29.40,NE,54,0.0,0.0,98,0.00,,,0.62,Wunderground v.1.15,2013-03-25 02:49:00,
2013-03-24 22:55:00,38.8,38.3,29.40,NE,54,0.0,0.0,98,0.00,,,0.62,Wunderground v.1.15,2013-03-25 02:55:00,
2013-03-24 23:00:00,38.6,38.1,29.40,NE,54,0.0,1.0,98,0.00,,,0.62,Wunderground v.1.15,2013-03-25 03:00:00,
2013-03-24 23:10:00,38.5,38.0,29.41,NE,54,1.0,1.0,98,0.00,,,0.62,Wunderground v.1.15,2013-03-25 03:10:00,
2013-03-24 23:20:00,38.5,38.0,29.41,NNE,24,1.0,1.0,98,0.00,,,0.62,Wunderground v.1.15,2013-03-25 03:20:00,
2013-03-24 23:30:00,38.2,37.7,29.41,NNW,340,2.0,2.0,98,0.00,,,0.62,Wunderground v.1.15,2013-03-25 03:30:00,
2013-03-24 23:35:00,38.0,37.5,29.41,NNW,340,1.0,2.0,98,0.00,,,0.62,Wunderground v.1.15,2013-03-25 03:35:00,
2013-03-24 23:40:00,38.0,37.5,29.41,NNW,340,0.0,0.0,98,0.00,,,0.62,Wunderground v.1.15,2013-03-25 03:40:00,
2013-03-24 23:50:00,38.0,37.5,29.41,NNW,340,0.0,0.0,98,0.00,,,0.62,Wunderground v.1.15,2013-03-25 03:50:00,